createdAt,value
2018-02-06T00:02:22.866Z,-1.00
2018-02-06T00:04:51.141Z,-1.00
2018-02-06T00:07:19.685Z,-1.00
2018-02-06T00:09:48.251Z,-1.00
2018-02-06T00:12:16.523Z,-1.00
2018-02-06T00:14:44.806Z,-1.00
2018-02-06T00:17:13.358Z,-1.00
2018-02-06T00:19:41.844Z,-1.00
2018-02-06T00:22:09.580Z,-1.10
2018-02-06T00:24:37.959Z,-1.10
2018-02-06T00:27:06.502Z,-1.10
2018-02-06T00:29:34.795Z,-1.10
2018-02-06T00:32:03.071Z,-1.10
2018-02-06T00:34:31.618Z,-1.20
2018-02-06T00:37:00.182Z,-1.20
2018-02-06T00:39:28.736Z,-1.20
2018-02-06T00:41:57.294Z,-1.20
2018-02-06T00:44:25.856Z,-1.20
2018-02-06T00:46:54.426Z,-1.30
2018-02-06T00:49:22.979Z,-1.30
2018-02-06T00:51:51.537Z,-1.30
2018-02-06T00:54:20.099Z,-1.30
2018-02-06T00:56:48.750Z,-1.40
2018-02-06T00:59:17.304Z,-1.40
2018-02-06T01:01:45.866Z,-1.30
2018-02-06T01:04:14.416Z,-1.30
2018-02-06T01:06:42.971Z,-1.30
2018-02-06T01:09:12.203Z,-1.30
2018-02-06T01:11:40.770Z,-1.40
2018-02-06T01:14:09.445Z,-1.30
2018-02-06T01:16:37.995Z,-1.40
2018-02-06T01:19:06.580Z,-1.40
2018-02-06T01:21:34.799Z,-1.40
2018-02-06T01:24:03.343Z,-1.30
2018-02-06T01:26:31.904Z,-1.40
2018-02-06T01:29:00.446Z,-1.50
2018-02-06T01:31:29.841Z,-1.50
2018-02-06T01:33:58.112Z,-1.50
2018-02-06T01:36:26.672Z,-1.50
2018-02-06T01:38:55.224Z,-1.60
2018-02-06T01:41:23.796Z,-1.60
2018-02-06T01:43:52.352Z,-1.70
2018-02-06T01:46:20.921Z,-1.60
2018-02-06T01:48:49.677Z,-1.60
2018-02-06T01:51:18.264Z,-1.60
2018-02-06T01:53:46.814Z,-1.60
2018-02-06T01:56:15.363Z,-1.60
2018-02-06T01:58:43.930Z,-1.60
2018-02-06T02:01:12.534Z,-1.60
2018-02-06T02:03:41.226Z,-1.60
2018-02-06T02:06:09.759Z,-1.70
2018-02-06T02:08:38.307Z,-1.70
2018-02-06T02:11:06.857Z,-1.70
2018-02-06T02:13:35.413Z,-1.70
2018-02-06T02:16:03.965Z,-1.70
2018-02-06T02:18:32.504Z,-1.70
2018-02-06T02:21:01.260Z,-1.70
2018-02-06T02:23:29.805Z,-1.70
2018-02-06T02:32:43.015Z,-1.90
2018-02-06T02:35:11.561Z,-2.00
2018-02-06T02:37:40.125Z,-1.90
2018-02-06T02:40:08.732Z,-2.00
2018-02-06T04:39:02.059Z,-2.20
2018-02-06T04:41:30.786Z,-2.30
2018-02-06T04:43:59.356Z,-2.30
2018-02-06T04:46:27.904Z,-2.30
2018-02-06T04:48:56.278Z,-2.30
2018-02-06T04:51:24.861Z,-2.30
2018-02-06T04:53:54.206Z,-2.30
2018-02-06T04:56:22.778Z,-2.30
2018-02-06T04:58:51.317Z,-2.30
2018-02-06T05:01:19.933Z,-2.30
2018-02-06T05:03:48.482Z,-2.30
2018-02-06T05:06:17.047Z,-2.30
2018-02-06T05:08:45.584Z,-2.40
2018-02-06T05:11:14.894Z,-2.40
2018-02-06T05:13:43.444Z,-2.40
2018-02-06T05:16:11.988Z,-2.40
2018-02-06T05:18:40.630Z,-2.30
2018-02-06T05:21:10.621Z,-2.40
2018-02-06T05:23:38.959Z,-2.30
2018-02-06T05:26:08.274Z,-2.40
2018-02-06T05:28:37.055Z,-2.40
2018-02-06T05:31:07.012Z,-2.40
2018-02-06T05:33:35.572Z,-2.50
2018-02-06T05:36:04.130Z,-2.50
2018-02-06T05:38:32.676Z,-2.50
2018-02-06T05:41:01.243Z,-2.50
2018-02-06T05:43:29.808Z,-2.40
2018-02-06T05:45:59.120Z,-2.50
2018-02-06T05:48:27.721Z,-2.50
2018-02-06T05:50:56.299Z,-2.60
2018-02-06T05:53:25.027Z,-2.50
2018-02-06T05:55:53.657Z,-2.50
2018-02-06T05:58:22.221Z,-2.50
2018-02-06T06:00:50.820Z,-2.50
2018-02-06T06:03:19.406Z,-2.60
2018-02-06T06:05:47.983Z,-2.70
2018-02-06T06:08:16.583Z,-2.70
2018-02-06T06:10:45.157Z,-2.70
2018-02-06T06:13:13.733Z,-2.70
2018-02-06T06:15:42.337Z,-2.80
2018-02-06T06:18:11.131Z,-2.70
2018-02-06T06:20:40.484Z,-2.60
2018-02-06T06:23:09.072Z,-2.70
2018-02-06T06:25:38.412Z,-2.70
2018-02-06T06:28:07.903Z,-2.80
2018-02-06T06:30:36.479Z,-2.80
2018-02-06T06:33:05.101Z,-2.80
2018-02-06T06:35:34.461Z,-2.80
2018-02-06T06:38:03.562Z,-2.90
2018-02-06T06:40:32.135Z,-2.90
2018-02-06T06:43:00.710Z,-2.90
2018-02-06T06:45:29.284Z,-2.90
2018-02-06T06:47:57.840Z,-2.80
2018-02-06T06:50:26.396Z,-2.80
2018-02-06T06:52:55.728Z,-2.80
2018-02-06T06:55:24.298Z,-2.80
2018-02-06T06:57:52.859Z,-2.80
2018-02-06T07:00:21.463Z,-2.80
2018-02-06T07:02:50.012Z,-2.80
2018-02-06T07:05:18.584Z,-2.70
2018-02-06T07:07:47.160Z,-2.70
2018-02-06T07:10:15.750Z,-2.80
2018-02-06T07:12:44.310Z,-2.80
2018-02-06T07:15:12.893Z,-2.80
2018-02-06T07:17:41.448Z,-2.80
2018-02-06T07:20:10.024Z,-2.80
2018-02-06T07:22:38.593Z,-2.70
2018-02-06T07:25:07.219Z,-2.70
2018-02-06T07:27:35.781Z,-2.70
2018-02-06T07:30:03.786Z,-2.70
2018-02-06T07:32:32.338Z,-2.70
2018-02-06T07:35:00.923Z,-2.70
2018-02-06T07:37:29.494Z,-2.70
2018-02-06T07:39:58.054Z,-2.60
2018-02-06T07:42:27.392Z,-2.70
2018-02-06T07:44:55.935Z,-2.70
2018-02-06T07:47:24.497Z,-2.70
2018-02-06T07:49:52.889Z,-2.60
2018-02-06T07:52:21.450Z,-2.60
2018-02-06T07:54:50.029Z,-2.60
2018-02-06T07:57:18.627Z,-2.60
2018-02-06T07:59:47.198Z,-2.60
2018-02-06T08:02:15.806Z,-2.60
2018-02-06T08:04:44.410Z,-2.60
2018-02-06T08:07:12.969Z,-2.50
2018-02-06T08:09:41.524Z,-2.40
2018-02-06T08:12:10.099Z,-2.40
2018-02-06T08:14:38.656Z,-2.40
2018-02-06T08:17:07.240Z,-2.30
2018-02-06T08:19:35.788Z,-2.30
2018-02-06T08:22:04.364Z,-2.20
2018-02-06T08:24:33.706Z,-2.20
2018-02-06T08:27:02.284Z,-2.30
2018-02-06T08:29:30.845Z,-2.10
2018-02-06T08:31:59.426Z,-2.10
2018-02-06T08:34:27.980Z,-2.00
2018-02-06T08:36:56.544Z,-2.00
2018-02-06T08:39:25.112Z,-2.00
2018-02-06T08:41:53.715Z,-1.90
2018-02-06T08:44:22.271Z,-1.90
2018-02-06T08:46:50.409Z,-1.90
2018-02-06T08:49:18.727Z,-1.80
2018-02-06T08:51:47.288Z,-1.80
2018-02-06T08:54:16.253Z,-1.80
2018-02-06T08:56:44.824Z,-1.80
2018-02-06T08:59:13.402Z,-1.70
2018-02-06T09:01:41.965Z,-1.70
2018-02-06T09:04:10.524Z,-1.70
2018-02-06T09:06:39.100Z,-1.70
2018-02-06T09:09:07.663Z,-1.60
2018-02-06T09:11:35.951Z,-1.50
2018-02-06T09:14:04.500Z,-1.50
2018-02-06T09:16:33.111Z,-1.50
2018-02-06T09:19:01.802Z,-1.40
2018-02-06T09:21:30.096Z,-1.40
2018-02-06T09:23:58.368Z,-1.40
2018-02-06T09:26:26.939Z,-1.40
2018-02-06T09:28:55.293Z,-1.40
2018-02-06T09:31:23.831Z,-1.40
2018-02-06T09:33:52.109Z,-1.40
2018-02-06T09:36:20.404Z,-1.30
2018-02-06T09:38:48.682Z,-1.30
2018-02-06T09:41:16.970Z,-1.30
2018-02-06T09:43:45.497Z,-1.10
2018-02-06T09:46:13.586Z,-1.20
2018-02-06T09:48:41.941Z,-1.20
2018-02-06T09:51:10.747Z,-1.20
2018-02-06T09:53:39.774Z,-1.20
2018-02-06T09:56:07.888Z,-1.20
2018-02-06T09:58:36.230Z,-1.10
2018-02-06T10:01:06.174Z,-1.00
2018-02-06T10:03:34.480Z,-1.00
2018-02-06T10:06:03.712Z,-0.90
2018-02-06T10:08:31.985Z,-0.90
2018-02-06T10:11:00.273Z,-0.90
2018-02-06T10:13:30.153Z,-0.80
2018-02-06T10:15:58.435Z,-0.70
2018-02-06T10:18:26.728Z,-0.90
2018-02-06T10:20:55.012Z,-0.70
2018-02-06T10:23:23.317Z,-0.70
2018-02-06T10:25:52.339Z,-0.60
2018-02-06T10:28:20.771Z,-0.60
2018-02-06T10:30:49.037Z,-0.60
2018-02-06T10:33:17.314Z,-0.50
2018-02-06T10:35:45.576Z,-0.40
2018-02-06T10:38:13.858Z,-0.40
2018-02-06T10:40:42.131Z,-0.30
2018-02-06T10:43:10.404Z,-0.20
2018-02-06T10:45:38.692Z,-0.30
2018-02-06T10:48:06.960Z,-0.20
2018-02-06T10:50:35.247Z,-0.10
2018-02-06T10:53:03.528Z,-0.10
2018-02-06T10:55:31.872Z,-0.10
2018-02-06T10:58:00.146Z,0.10
2018-02-06T11:00:28.421Z,0.00
2018-02-06T11:02:56.683Z,0.10
2018-02-06T11:05:24.943Z,0.00
2018-02-06T11:07:53.217Z,0.20
2018-02-06T11:10:21.494Z,0.20
2018-02-06T11:12:49.780Z,0.20
2018-02-06T11:15:18.054Z,0.30
2018-02-06T11:17:46.348Z,0.40
2018-02-06T11:20:14.618Z,0.40
2018-02-06T11:22:42.887Z,0.40
2018-02-06T11:25:11.012Z,0.50
2018-02-06T11:27:39.452Z,0.60
2018-02-06T11:30:07.928Z,0.60
2018-02-06T11:32:36.262Z,0.60
2018-02-06T11:35:04.241Z,0.70
2018-02-06T11:37:32.586Z,0.80
2018-02-06T11:40:01.151Z,0.80
2018-02-06T11:42:29.575Z,0.60
2018-02-06T11:44:58.337Z,0.60
2018-02-06T11:47:26.608Z,0.70
2018-02-06T11:49:54.872Z,0.90
2018-02-06T11:52:23.150Z,0.80
2018-02-06T11:54:51.459Z,0.80
2018-02-06T11:57:19.725Z,0.80
2018-02-06T11:59:47.985Z,0.80
2018-02-06T12:02:17.779Z,1.10
2018-02-06T12:04:46.046Z,1.10
2018-02-06T12:07:14.344Z,1.00
2018-02-06T12:09:42.604Z,1.10
2018-02-06T12:12:10.872Z,1.10
2018-02-06T12:14:39.271Z,1.30
2018-02-06T12:17:07.582Z,1.30
2018-02-06T12:19:36.131Z,1.30
2018-02-06T12:22:05.292Z,1.40
2018-02-06T12:24:33.585Z,1.60
2018-02-06T12:27:01.894Z,1.50
2018-02-06T12:29:30.142Z,1.50
2018-02-06T12:31:58.420Z,1.40
2018-02-06T12:34:26.691Z,1.40
2018-02-06T12:36:54.961Z,1.50
2018-02-06T12:39:23.225Z,1.30
2018-02-06T12:41:51.166Z,1.30
2018-02-06T12:44:19.472Z,1.30
2018-02-06T12:46:47.786Z,1.50
2018-02-06T12:49:16.107Z,1.70
2018-02-06T12:51:44.437Z,1.60
2018-02-06T12:54:12.799Z,1.60
2018-02-06T12:56:41.116Z,1.50
2018-02-06T12:59:09.510Z,1.50
2018-02-06T13:01:37.838Z,1.50
2018-02-06T13:04:06.173Z,1.70
2018-02-06T13:06:34.482Z,1.70
2018-02-06T13:09:03.277Z,1.60
2018-02-06T13:11:31.584Z,1.70
2018-02-06T13:13:59.897Z,1.60
2018-02-06T13:16:28.244Z,1.90
2018-02-06T13:18:56.550Z,1.80
2018-02-06T13:21:24.862Z,1.70
2018-02-06T13:23:53.921Z,1.80
2018-02-06T13:26:22.269Z,1.80
2018-02-06T13:28:50.603Z,1.90
2018-02-06T13:31:18.921Z,1.90
2018-02-06T13:33:47.218Z,1.90
2018-02-06T13:36:15.589Z,1.70
2018-02-06T13:45:28.139Z,2.00
2018-02-06T13:47:56.465Z,1.80
2018-02-06T13:50:24.773Z,1.90
2018-02-06T13:52:53.130Z,1.70
2018-02-06T13:55:22.235Z,1.70
2018-02-06T13:57:57.839Z,1.60
2018-02-06T14:00:26.236Z,1.90
2018-02-06T14:02:54.520Z,1.80
2018-02-06T14:05:23.625Z,1.70
2018-02-06T14:07:51.932Z,1.70
2018-02-06T14:10:20.005Z,1.80
2018-02-06T14:12:49.042Z,1.80
2018-02-06T14:15:17.447Z,1.80
2018-02-06T14:17:45.741Z,1.80
2018-02-06T14:20:14.024Z,1.70
2018-02-06T14:22:42.340Z,1.70
2018-02-06T14:25:10.629Z,1.90
2018-02-06T14:27:38.570Z,1.80
2018-02-06T14:30:07.616Z,1.70
2018-02-06T14:32:35.925Z,1.70
2018-02-06T14:35:04.228Z,1.80
2018-02-06T14:37:32.311Z,1.70
2018-02-06T14:40:01.361Z,1.80
2018-02-06T14:42:29.684Z,1.70
2018-02-06T14:44:57.995Z,1.80
2018-02-06T14:47:26.286Z,1.80
2018-02-06T14:49:54.220Z,1.70
2018-02-06T14:52:22.532Z,1.60
2018-02-06T14:54:50.787Z,1.60
2018-02-06T14:57:19.081Z,1.80
2018-02-06T14:59:47.398Z,1.70
2018-02-06T15:02:15.688Z,1.60
2018-02-06T15:04:43.995Z,1.60
2018-02-06T15:07:12.266Z,1.70
2018-02-06T15:09:40.547Z,1.60
2018-02-06T15:12:08.841Z,1.50
2018-02-06T15:14:37.161Z,1.60
2018-02-06T15:17:05.434Z,1.50
2018-02-06T15:19:34.463Z,1.50
2018-02-06T15:22:02.744Z,1.50
2018-02-06T15:24:31.034Z,1.40
2018-02-06T15:26:59.337Z,1.30
2018-02-06T15:29:27.604Z,1.20
2018-02-06T15:31:55.901Z,1.20
2018-02-06T15:34:24.158Z,1.10
2018-02-06T15:36:53.226Z,1.00
2018-02-06T15:39:21.495Z,1.00
2018-02-06T15:41:50.530Z,0.90
2018-02-06T15:44:18.802Z,0.90
2018-02-06T15:46:47.108Z,1.00
2018-02-06T15:49:15.388Z,1.00
2018-02-06T15:51:43.648Z,1.00
2018-02-06T15:54:11.937Z,0.80
2018-02-06T15:56:40.221Z,0.90
2018-02-06T15:59:08.323Z,0.70
2018-02-06T16:01:36.386Z,0.70
2018-02-06T16:04:04.700Z,0.70
2018-02-06T16:06:32.981Z,0.70
2018-02-06T16:09:01.294Z,0.60
2018-02-06T16:11:29.587Z,0.50
2018-02-06T16:13:57.912Z,0.40
2018-02-06T16:16:26.181Z,0.40
2018-02-06T16:18:55.246Z,0.40
2018-02-06T16:21:23.513Z,0.40
2018-02-06T16:23:51.845Z,0.40
2018-02-06T16:26:20.164Z,0.50
2018-02-06T16:28:49.212Z,0.40
2018-02-06T16:31:17.490Z,0.40
2018-02-06T16:33:45.753Z,0.30
2018-02-06T16:36:14.097Z,0.20
2018-02-06T16:38:43.179Z,0.10
2018-02-06T16:41:11.465Z,0.10
2018-02-06T16:43:39.934Z,0.20
2018-02-06T16:46:07.629Z,0.10
2018-02-06T16:48:35.897Z,-0.10
2018-02-06T16:51:04.169Z,0.10
2018-02-06T16:53:32.443Z,-0.10
2018-02-06T16:56:00.716Z,-0.10
2018-02-06T16:58:29.006Z,-0.10
2018-02-06T17:00:57.299Z,-0.10
2018-02-06T17:03:25.563Z,-0.10
2018-02-06T17:05:53.861Z,-0.10
2018-02-06T17:08:22.142Z,-0.30
2018-02-06T17:10:50.435Z,-0.20
2018-02-06T17:13:18.720Z,-0.30
2018-02-06T17:15:47.778Z,-0.40
2018-02-06T17:18:15.860Z,-0.40
2018-02-06T17:20:44.158Z,-0.40
2018-02-06T17:23:12.450Z,-0.40
2018-02-06T17:25:41.517Z,-0.50
2018-02-06T17:28:09.785Z,-0.50
2018-02-06T17:30:38.077Z,-0.50
2018-02-06T17:33:06.437Z,-0.60
2018-02-06T17:35:34.764Z,-0.70
2018-02-06T17:38:03.044Z,-0.70
2018-02-06T17:40:31.321Z,-0.70
2018-02-06T17:42:59.626Z,-0.80
2018-02-06T17:45:27.884Z,-0.90
2018-02-06T17:47:56.151Z,-1.00
2018-02-06T17:50:24.445Z,-1.00
2018-02-06T17:52:52.729Z,-1.00
2018-02-06T17:55:21.044Z,-1.00
2018-02-06T17:57:49.324Z,-1.00
2018-02-06T18:00:17.619Z,-1.00
2018-02-06T18:02:45.945Z,-1.10
2018-02-06T18:05:14.241Z,-1.10
2018-02-06T18:07:42.503Z,-1.20
2018-02-06T18:10:10.790Z,-1.20
2018-02-06T18:12:39.047Z,-1.20
2018-02-06T18:15:07.344Z,-1.20
2018-02-06T18:17:35.634Z,-1.30
2018-02-06T18:20:03.920Z,-1.40
2018-02-06T18:22:32.457Z,-1.30
2018-02-06T18:25:00.741Z,-1.40
2018-02-06T18:27:29.284Z,-1.40
2018-02-06T18:29:57.580Z,-1.60
2018-02-06T18:32:26.148Z,-1.50
2018-02-06T18:34:54.467Z,-1.40
2018-02-06T18:37:22.763Z,-1.50
2018-02-06T18:39:51.032Z,-1.60
2018-02-06T18:42:19.589Z,-1.70
2018-02-06T18:44:48.159Z,-1.60
2018-02-06T18:47:16.710Z,-1.80
2018-02-06T18:49:45.286Z,-1.70
2018-02-06T18:52:13.846Z,-1.80
2018-02-06T18:54:42.128Z,-1.90
2018-02-06T18:57:10.669Z,-2.00
2018-02-06T18:59:39.230Z,-2.10
2018-02-06T19:02:07.546Z,-2.20
2018-02-06T19:04:36.293Z,-2.30
2018-02-06T19:07:04.834Z,-2.30
2018-02-06T19:09:33.380Z,-2.40
2018-02-06T19:12:01.916Z,-2.50
2018-02-06T19:14:30.468Z,-2.50
2018-02-06T19:16:59.017Z,-2.50
2018-02-06T19:19:27.594Z,-2.60
2018-02-06T19:21:56.173Z,-2.70
2018-02-06T19:24:24.890Z,-2.70
2018-02-06T19:26:53.439Z,-2.70
2018-02-06T19:29:21.992Z,-2.50
2018-02-06T19:31:50.558Z,-2.60
2018-02-06T19:34:19.102Z,-2.70
2018-02-06T19:36:47.672Z,-2.80
2018-02-06T19:39:17.001Z,-2.40
2018-02-06T19:41:45.567Z,-2.50
2018-02-06T19:44:14.170Z,-2.50
2018-02-06T19:46:42.696Z,-2.70
2018-02-06T19:49:11.263Z,-2.80
2018-02-06T19:51:39.835Z,-2.80
2018-02-06T19:54:08.395Z,-2.80
2018-02-06T19:56:36.980Z,-2.80
2018-02-06T19:59:05.525Z,-2.90
2018-02-06T20:01:34.070Z,-2.90
2018-02-06T20:04:03.386Z,-2.90
2018-02-06T20:06:31.955Z,-2.90
2018-02-06T20:09:00.523Z,-2.70
2018-02-06T20:11:29.083Z,-2.60
2018-02-06T20:13:57.628Z,-2.80
2018-02-06T20:16:25.995Z,-2.80
2018-02-06T20:18:54.554Z,-2.70
2018-02-06T20:21:23.112Z,-2.80
2018-02-06T20:23:51.846Z,-2.90
2018-02-06T20:26:20.425Z,-2.80
2018-02-06T20:28:49.009Z,-2.90
2018-02-06T20:31:17.757Z,-2.90
2018-02-06T20:33:46.307Z,-3.00
2018-02-06T20:36:14.852Z,-2.90
2018-02-06T20:38:43.430Z,-3.00
2018-02-06T20:41:11.988Z,-3.00
2018-02-06T20:43:40.543Z,-3.00
2018-02-06T20:46:08.763Z,-3.10
2018-02-06T20:48:37.299Z,-2.90
2018-02-06T20:51:05.837Z,-2.80
2018-02-06T20:53:34.382Z,-2.90
2018-02-06T20:56:02.944Z,-2.90
2018-02-06T20:58:31.504Z,-2.70
2018-02-06T21:01:00.073Z,-2.80
2018-02-06T21:03:28.625Z,-2.60
2018-02-06T21:05:57.181Z,-2.80
2018-02-06T21:08:25.733Z,-2.60
2018-02-06T21:10:54.299Z,-2.50
2018-02-06T21:13:22.851Z,-2.50
2018-02-06T21:15:51.396Z,-2.20
2018-02-06T21:18:20.706Z,-2.30
2018-02-06T21:20:49.269Z,-2.30
2018-02-06T21:23:17.818Z,-2.20
2018-02-06T21:25:46.106Z,-2.30
2018-02-06T21:28:14.651Z,-2.20
2018-02-06T21:30:43.987Z,-2.30
2018-02-06T21:33:12.563Z,-2.30
2018-02-06T21:35:41.127Z,-2.20
2018-02-06T21:38:09.668Z,-2.20
2018-02-06T21:40:38.226Z,-2.30
2018-02-06T21:43:06.782Z,-2.20
2018-02-06T21:45:36.086Z,-2.20
2018-02-06T21:48:04.653Z,-2.20
2018-02-06T21:50:33.223Z,-2.20
2018-02-06T21:53:01.782Z,-2.20
2018-02-06T21:55:30.341Z,-2.10
2018-02-06T21:57:59.729Z,-2.00
2018-02-06T22:00:28.272Z,-2.00
2018-02-06T22:02:56.821Z,-2.00
2018-02-06T22:05:25.382Z,-2.10
2018-02-06T22:07:53.914Z,-2.40
2018-02-06T22:10:22.502Z,-2.50
2018-02-06T22:12:51.077Z,-2.50
2018-02-06T22:15:19.780Z,-2.60
2018-02-06T22:17:48.326Z,-2.60
2018-02-06T22:20:16.897Z,-2.70
2018-02-06T22:22:45.442Z,-2.70
2018-02-06T22:25:14.017Z,-2.90
2018-02-06T22:27:42.559Z,-2.90
2018-02-06T22:30:11.142Z,-2.90
2018-02-06T22:32:39.499Z,-3.00
2018-02-06T22:35:08.039Z,-3.10
2018-02-06T22:37:36.262Z,-3.20
2018-02-06T22:40:04.804Z,-3.30
2018-02-06T22:42:33.356Z,-3.30
2018-02-06T22:45:01.920Z,-3.20
2018-02-06T22:47:30.466Z,-3.30
2018-02-06T22:49:58.995Z,-3.40
2018-02-06T22:52:27.538Z,-3.40
2018-02-06T22:54:56.085Z,-3.40
2018-02-06T22:57:24.633Z,-3.60
2018-02-06T22:59:53.188Z,-3.60
2018-02-06T23:02:21.741Z,-3.70
2018-02-06T23:04:50.278Z,-3.70
2018-02-06T23:07:18.838Z,-3.70
2018-02-06T23:09:47.391Z,-3.70
2018-02-06T23:12:16.157Z,-3.70
2018-02-06T23:14:44.705Z,-3.70
2018-02-06T23:17:13.260Z,-3.60
2018-02-06T23:19:41.801Z,-3.50
2018-02-06T23:22:11.128Z,-3.50
2018-02-06T23:24:39.683Z,-3.50
2018-02-06T23:27:08.251Z,-3.50
2018-02-06T23:29:36.804Z,-3.60
2018-02-06T23:32:05.355Z,-3.70
2018-02-06T23:34:34.695Z,-3.90
2018-02-06T23:37:03.417Z,-3.90
2018-02-06T23:39:31.988Z,-4.10
2018-02-06T23:42:00.573Z,-4.10
2018-02-06T23:44:29.116Z,-4.10
2018-02-06T23:46:58.828Z,-4.00
2018-02-06T23:49:27.390Z,-3.90
2018-02-06T23:51:55.948Z,-3.90
2018-02-06T23:54:24.493Z,-3.70
2018-02-06T23:56:53.053Z,-3.90
2018-02-06T23:59:21.607Z,-3.90
